sensor_id;sensor_type;location;lat;lon;timestamp;temperature;humidity
65179;DHT22;51849;47.476;8.084;2022-08-05T00:01:02;24.10;50.20
65179;DHT22;51849;47.476;8.084;2022-08-05T00:03:35;24.00;50.40
65179;DHT22;51849;47.476;8.084;2022-08-05T00:06:03;24.00;50.60
65179;DHT22;51849;47.476;8.084;2022-08-05T00:08:29;24.00;50.50
65179;DHT22;51849;47.476;8.084;2022-08-05T00:10:55;24.00;50.40
65179;DHT22;51849;47.476;8.084;2022-08-05T00:13:21;24.00;50.50
65179;DHT22;51849;47.476;8.084;2022-08-05T00:15:47;24.00;50.40
65179;DHT22;51849;47.476;8.084;2022-08-05T00:18:12;24.10;50.30
65179;DHT22;51849;47.476;8.084;2022-08-05T00:20:38;24.10;50.50
65179;DHT22;51849;47.476;8.084;2022-08-05T00:23:04;24.10;50.90
65179;DHT22;51849;47.476;8.084;2022-08-05T00:25:29;24.10;51.20
65179;DHT22;51849;47.476;8.084;2022-08-05T00:27:55;24.00;51.60
65179;DHT22;51849;47.476;8.084;2022-08-05T00:30:21;24.00;51.70
65179;DHT22;51849;47.476;8.084;2022-08-05T00:32:46;24.00;51.70
65179;DHT22;51849;47.476;8.084;2022-08-05T00:35:14;24.00;51.80
65179;DHT22;51849;47.476;8.084;2022-08-05T00:37:40;24.00;51.80
65179;DHT22;51849;47.476;8.084;2022-08-05T00:40:05;23.90;51.50
65179;DHT22;51849;47.476;8.084;2022-08-05T00:42:33;24.30;49.50
65179;DHT22;51849;47.476;8.084;2022-08-05T00:45:00;24.70;48.20
65179;DHT22;51849;47.476;8.084;2022-08-05T00:47:26;25.00;47.10
65179;DHT22;51849;47.476;8.084;2022-08-05T00:49:52;25.10;47.20
65179;DHT22;51849;47.476;8.084;2022-08-05T00:52:18;24.80;47.60
65179;DHT22;51849;47.476;8.084;2022-08-05T00:54:44;24.60;47.30
65179;DHT22;51849;47.476;8.084;2022-08-05T00:57:10;24.50;47.50
65179;DHT22;51849;47.476;8.084;2022-08-05T00:59:36;24.30;47.60
65179;DHT22;51849;47.476;8.084;2022-08-05T01:02:02;24.30;47.50
65179;DHT22;51849;47.476;8.084;2022-08-05T01:04:28;24.50;48.20
65179;DHT22;51849;47.476;8.084;2022-08-05T01:06:54;24.70;48.10
65179;DHT22;51849;47.476;8.084;2022-08-05T01:09:20;25.00;47.70
65179;DHT22;51849;47.476;8.084;2022-08-05T01:11:47;25.10;47.10
65179;DHT22;51849;47.476;8.084;2022-08-05T01:14:32;25.30;46.90
65179;DHT22;51849;47.476;8.084;2022-08-05T01:17:05;25.40;46.50
65179;DHT22;51849;47.476;8.084;2022-08-05T01:31:11;25.20;46.70
65179;DHT22;51849;47.476;8.084;2022-08-05T01:33:59;24.80;48.00
65179;DHT22;51849;47.476;8.084;2022-08-05T01:36:33;24.50;48.70
65179;DHT22;51849;47.476;8.084;2022-08-05T01:39:04;24.30;49.10
65179;DHT22;51849;47.476;8.084;2022-08-05T01:41:31;24.10;49.20
65179;DHT22;51849;47.476;8.084;2022-08-05T01:44:02;24.00;49.50
65179;DHT22;51849;47.476;8.084;2022-08-05T01:46:31;24.00;49.60
65179;DHT22;51849;47.476;8.084;2022-08-05T01:48:57;24.00;49.60
65179;DHT22;51849;47.476;8.084;2022-08-05T01:51:26;24.00;49.70
65179;DHT22;51849;47.476;8.084;2022-08-05T01:53:56;24.00;49.60
65179;DHT22;51849;47.476;8.084;2022-08-05T01:56:23;24.30;49.20
65179;DHT22;51849;47.476;8.084;2022-08-05T01:58:53;24.60;48.70
65179;DHT22;51849;47.476;8.084;2022-08-05T02:01:20;24.90;48.00
65179;DHT22;51849;47.476;8.084;2022-08-05T02:03:48;25.20;47.30
65179;DHT22;51849;47.476;8.084;2022-08-05T02:06:17;25.40;46.90
65179;DHT22;51849;47.476;8.084;2022-08-05T02:08:45;25.50;46.50
65179;DHT22;51849;47.476;8.084;2022-08-05T02:11:11;25.50;46.40
65179;DHT22;51849;47.476;8.084;2022-08-05T02:19:11;25.10;46.80
65179;DHT22;51849;47.476;8.084;2022-08-05T02:21:39;24.90;47.70
65179;DHT22;51849;47.476;8.084;2022-08-05T02:24:08;24.80;48.10
65179;DHT22;51849;47.476;8.084;2022-08-05T02:26:42;24.60;48.30
65179;DHT22;51849;47.476;8.084;2022-08-05T02:29:12;24.60;48.70
65179;DHT22;51849;47.476;8.084;2022-08-05T02:31:44;24.60;49.50
65179;DHT22;51849;47.476;8.084;2022-08-05T02:34:11;24.60;49.90
65179;DHT22;51849;47.476;8.084;2022-08-05T02:36:41;24.60;50.10
65179;DHT22;51849;47.476;8.084;2022-08-05T02:39:10;24.70;50.20
65179;DHT22;51849;47.476;8.084;2022-08-05T02:41:37;24.70;50.30
65179;DHT22;51849;47.476;8.084;2022-08-05T02:44:06;24.70;50.40
65179;DHT22;51849;47.476;8.084;2022-08-05T02:46:33;24.70;50.40
65179;DHT22;51849;47.476;8.084;2022-08-05T02:49:00;24.60;50.50
65179;DHT22;51849;47.476;8.084;2022-08-05T02:51:27;24.60;50.50
65179;DHT22;51849;47.476;8.084;2022-08-05T02:53:54;24.60;50.80
65179;DHT22;51849;47.476;8.084;2022-08-05T02:56:20;24.50;50.80
65179;DHT22;51849;47.476;8.084;2022-08-05T02:58:46;24.50;50.80
65179;DHT22;51849;47.476;8.084;2022-08-05T03:01:16;24.50;50.90
65179;DHT22;51849;47.476;8.084;2022-08-05T03:03:44;24.40;50.90
65179;DHT22;51849;47.476;8.084;2022-08-05T03:06:14;24.40;51.10
65179;DHT22;51849;47.476;8.084;2022-08-05T03:08:41;24.30;51.90
65179;DHT22;51849;47.476;8.084;2022-08-05T03:14:05;24.30;51.70
65179;DHT22;51849;47.476;8.084;2022-08-05T03:16:31;24.20;52.20
65179;DHT22;51849;47.476;8.084;2022-08-05T03:18:59;24.20;52.30
65179;DHT22;51849;47.476;8.084;2022-08-05T03:21:25;24.10;52.50
65179;DHT22;51849;47.476;8.084;2022-08-05T03:23:51;24.10;51.90
65179;DHT22;51849;47.476;8.084;2022-08-05T03:26:18;24.20;51.80
65179;DHT22;51849;47.476;8.084;2022-08-05T03:28:44;24.20;51.90
65179;DHT22;51849;47.476;8.084;2022-08-05T03:31:10;24.20;51.60
65179;DHT22;51849;47.476;8.084;2022-08-05T03:33:36;24.10;51.80
65179;DHT22;51849;47.476;8.084;2022-08-05T03:36:04;24.10;51.70
65179;DHT22;51849;47.476;8.084;2022-08-05T03:38:30;24.10;51.90
65179;DHT22;51849;47.476;8.084;2022-08-05T03:40:55;24.10;51.90
65179;DHT22;51849;47.476;8.084;2022-08-05T03:43:21;24.10;52.20
65179;DHT22;51849;47.476;8.084;2022-08-05T03:45:50;24.00;52.40
65179;DHT22;51849;47.476;8.084;2022-08-05T03:48:18;24.00;52.50
65179;DHT22;51849;47.476;8.084;2022-08-05T03:53:40;23.90;52.90
65179;DHT22;51849;47.476;8.084;2022-08-05T03:56:14;23.90;52.80
65179;DHT22;51849;47.476;8.084;2022-08-05T03:58:46;23.90;52.80
65179;DHT22;51849;47.476;8.084;2022-08-05T04:01:13;23.80;53.60
65179;DHT22;51849;47.476;8.084;2022-08-05T04:03:42;23.70;53.60
65179;DHT22;51849;47.476;8.084;2022-08-05T04:06:10;23.70;54.00
65179;DHT22;51849;47.476;8.084;2022-08-05T04:08:36;23.60;54.00
65179;DHT22;51849;47.476;8.084;2022-08-05T04:11:04;23.60;54.00
65179;DHT22;51849;47.476;8.084;2022-08-05T04:13:31;23.50;54.20
65179;DHT22;51849;47.476;8.084;2022-08-05T04:16:00;23.40;54.40
65179;DHT22;51849;47.476;8.084;2022-08-05T04:18:25;23.30;54.90
65179;DHT22;51849;47.476;8.084;2022-08-05T04:20:57;23.30;54.70
65179;DHT22;51849;47.476;8.084;2022-08-05T04:23:24;23.30;55.30
65179;DHT22;51849;47.476;8.084;2022-08-05T04:25:53;23.30;55.30
65179;DHT22;51849;47.476;8.084;2022-08-05T04:28:19;23.30;55.40
65179;DHT22;51849;47.476;8.084;2022-08-05T04:30:45;23.20;55.60
65179;DHT22;51849;47.476;8.084;2022-08-05T04:33:12;23.20;55.90
65179;DHT22;51849;47.476;8.084;2022-08-05T04:35:38;23.20;56.00
65179;DHT22;51849;47.476;8.084;2022-08-05T04:38:05;23.20;55.60
65179;DHT22;51849;47.476;8.084;2022-08-05T04:40:34;23.20;55.50
65179;DHT22;51849;47.476;8.084;2022-08-05T04:43:00;23.30;55.60
65179;DHT22;51849;47.476;8.084;2022-08-05T04:45:26;23.20;55.80
65179;DHT22;51849;47.476;8.084;2022-08-05T04:47:52;23.20;55.70
65179;DHT22;51849;47.476;8.084;2022-08-05T04:50:18;23.30;55.70
65179;DHT22;51849;47.476;8.084;2022-08-05T04:52:44;23.30;55.90
65179;DHT22;51849;47.476;8.084;2022-08-05T04:55:09;23.30;56.00
65179;DHT22;51849;47.476;8.084;2022-08-05T04:57:35;23.40;55.70
65179;DHT22;51849;47.476;8.084;2022-08-05T05:00:03;23.50;55.60
65179;DHT22;51849;47.476;8.084;2022-08-05T05:02:30;23.50;55.60
65179;DHT22;51849;47.476;8.084;2022-08-05T05:04:56;23.50;55.60
65179;DHT22;51849;47.476;8.084;2022-08-05T05:07:24;23.50;55.60
65179;DHT22;51849;47.476;8.084;2022-08-05T05:09:50;23.70;55.30
65179;DHT22;51849;47.476;8.084;2022-08-05T05:12:16;23.90;54.80
65179;DHT22;51849;47.476;8.084;2022-08-05T05:14:42;24.10;54.60
65179;DHT22;51849;47.476;8.084;2022-08-05T05:17:07;24.20;54.40
65179;DHT22;51849;47.476;8.084;2022-08-05T05:19:33;24.20;54.30
65179;DHT22;51849;47.476;8.084;2022-08-05T05:21:59;24.40;53.90
65179;DHT22;51849;47.476;8.084;2022-08-05T05:24:24;24.60;53.30
65179;DHT22;51849;47.476;8.084;2022-08-05T05:26:50;24.80;52.90
65179;DHT22;51849;47.476;8.084;2022-08-05T05:29:18;25.00;52.40
65179;DHT22;51849;47.476;8.084;2022-08-05T05:31:44;25.10;52.00
65179;DHT22;51849;47.476;8.084;2022-08-05T05:34:09;25.30;51.80
65179;DHT22;51849;47.476;8.084;2022-08-05T05:36:35;25.40;51.70
65179;DHT22;51849;47.476;8.084;2022-08-05T05:39:00;25.50;51.40
65179;DHT22;51849;47.476;8.084;2022-08-05T05:41:26;25.60;51.10
65179;DHT22;51849;47.476;8.084;2022-08-05T05:43:52;25.60;51.10
65179;DHT22;51849;47.476;8.084;2022-08-05T05:46:21;25.80;50.80
65179;DHT22;51849;47.476;8.084;2022-08-05T05:48:46;26.20;50.40
65179;DHT22;51849;47.476;8.084;2022-08-05T05:51:21;26.30;50.10
65179;DHT22;51849;47.476;8.084;2022-08-05T05:53:48;26.40;50.00
65179;DHT22;51849;47.476;8.084;2022-08-05T05:56:15;26.10;50.60
65179;DHT22;51849;47.476;8.084;2022-08-05T05:58:41;25.90;51.00
65179;DHT22;51849;47.476;8.084;2022-08-05T06:01:06;25.90;50.70
65179;DHT22;51849;47.476;8.084;2022-08-05T06:03:32;26.00;50.40
65179;DHT22;51849;47.476;8.084;2022-08-05T06:05:58;26.10;50.00
65179;DHT22;51849;47.476;8.084;2022-08-05T06:08:23;26.40;49.50
65179;DHT22;51849;47.476;8.084;2022-08-05T06:10:49;26.50;49.20
65179;DHT22;51849;47.476;8.084;2022-08-05T06:13:15;26.60;48.60
65179;DHT22;51849;47.476;8.084;2022-08-05T06:15:40;26.80;48.10
65179;DHT22;51849;47.476;8.084;2022-08-05T06:18:06;27.10;47.70
65179;DHT22;51849;47.476;8.084;2022-08-05T06:20:31;27.30;46.90
65179;DHT22;51849;47.476;8.084;2022-08-05T06:22:57;27.50;46.40
65179;DHT22;51849;47.476;8.084;2022-08-05T06:25:23;27.50;45.90
65179;DHT22;51849;47.476;8.084;2022-08-05T06:27:49;27.50;45.90
65179;DHT22;51849;47.476;8.084;2022-08-05T06:30:15;27.50;46.00
65179;DHT22;51849;47.476;8.084;2022-08-05T06:32:41;27.60;45.80
65179;DHT22;51849;47.476;8.084;2022-08-05T06:35:07;27.50;45.30
65179;DHT22;51849;47.476;8.084;2022-08-05T06:37:33;27.60;45.00
65179;DHT22;51849;47.476;8.084;2022-08-05T06:39:59;27.80;44.40
65179;DHT22;51849;47.476;8.084;2022-08-05T06:42:25;27.80;44.50
65179;DHT22;51849;47.476;8.084;2022-08-05T06:44:50;28.00;44.40
65179;DHT22;51849;47.476;8.084;2022-08-05T06:47:18;28.20;44.00
65179;DHT22;51849;47.476;8.084;2022-08-05T06:49:44;28.10;44.10
65179;DHT22;51849;47.476;8.084;2022-08-05T06:52:11;28.10;44.30
65179;DHT22;51849;47.476;8.084;2022-08-05T06:54:36;28.00;44.30
65179;DHT22;51849;47.476;8.084;2022-08-05T06:57:02;28.10;44.00
65179;DHT22;51849;47.476;8.084;2022-08-05T06:59:29;28.00;43.90
65179;DHT22;51849;47.476;8.084;2022-08-05T07:01:54;28.10;44.00
65179;DHT22;51849;47.476;8.084;2022-08-05T07:04:20;28.20;43.80
65179;DHT22;51849;47.476;8.084;2022-08-05T07:06:46;28.40;43.50
65179;DHT22;51849;47.476;8.084;2022-08-05T07:09:11;28.50;42.20
65179;DHT22;51849;47.476;8.084;2022-08-05T07:11:37;28.60;41.90
65179;DHT22;51849;47.476;8.084;2022-08-05T07:14:03;28.80;41.80
65179;DHT22;51849;47.476;8.084;2022-08-05T07:16:47;28.90;41.50
65179;DHT22;51849;47.476;8.084;2022-08-05T07:19:14;29.00;41.10
65179;DHT22;51849;47.476;8.084;2022-08-05T07:21:44;29.10;41.30
65179;DHT22;51849;47.476;8.084;2022-08-05T07:24:13;29.20;41.10
65179;DHT22;51849;47.476;8.084;2022-08-05T07:26:40;29.40;40.60
65179;DHT22;51849;47.476;8.084;2022-08-05T07:29:06;29.40;40.50
65179;DHT22;51849;47.476;8.084;2022-08-05T07:31:33;29.50;40.30
65179;DHT22;51849;47.476;8.084;2022-08-05T07:33:58;29.60;39.50
65179;DHT22;51849;47.476;8.084;2022-08-05T07:36:27;29.60;39.70
65179;DHT22;51849;47.476;8.084;2022-08-05T07:38:56;29.70;40.00
65179;DHT22;51849;47.476;8.084;2022-08-05T07:41:22;29.90;39.70
65179;DHT22;51849;47.476;8.084;2022-08-05T07:43:51;30.00;39.70
65179;DHT22;51849;47.476;8.084;2022-08-05T07:46:18;30.10;39.70
65179;DHT22;51849;47.476;8.084;2022-08-05T07:48:47;30.20;38.50
65179;DHT22;51849;47.476;8.084;2022-08-05T07:51:15;30.00;38.40
65179;DHT22;51849;47.476;8.084;2022-08-05T07:53:43;29.80;38.90
65179;DHT22;51849;47.476;8.084;2022-08-05T07:56:09;29.90;38.30
65179;DHT22;51849;47.476;8.084;2022-08-05T07:58:34;29.70;38.90
65179;DHT22;51849;47.476;8.084;2022-08-05T08:01:00;29.90;38.40
65179;DHT22;51849;47.476;8.084;2022-08-05T08:03:26;30.00;38.80
65179;DHT22;51849;47.476;8.084;2022-08-05T08:05:51;30.10;38.50
65179;DHT22;51849;47.476;8.084;2022-08-05T08:08:17;30.20;38.30
65179;DHT22;51849;47.476;8.084;2022-08-05T08:10:45;30.30;38.20
65179;DHT22;51849;47.476;8.084;2022-08-05T08:13:11;30.30;38.00
65179;DHT22;51849;47.476;8.084;2022-08-05T08:15:37;30.60;37.60
65179;DHT22;51849;47.476;8.084;2022-08-05T08:18:02;30.80;37.00
65179;DHT22;51849;47.476;8.084;2022-08-05T08:20:30;31.00;36.60
65179;DHT22;51849;47.476;8.084;2022-08-05T08:22:57;30.90;36.80
65179;DHT22;51849;47.476;8.084;2022-08-05T08:25:24;31.00;36.60
65179;DHT22;51849;47.476;8.084;2022-08-05T08:27:53;31.00;36.50
65179;DHT22;51849;47.476;8.084;2022-08-05T08:30:19;30.90;36.60
65179;DHT22;51849;47.476;8.084;2022-08-05T08:32:47;30.90;36.70
65179;DHT22;51849;47.476;8.084;2022-08-05T08:35:13;30.70;37.00
65179;DHT22;51849;47.476;8.084;2022-08-05T08:37:39;30.50;37.80
65179;DHT22;51849;47.476;8.084;2022-08-05T08:40:05;30.40;38.30
65179;DHT22;51849;47.476;8.084;2022-08-05T08:42:31;30.40;38.50
65179;DHT22;51849;47.476;8.084;2022-08-05T08:44:57;30.40;38.20
65179;DHT22;51849;47.476;8.084;2022-08-05T08:47:25;30.50;38.10
65179;DHT22;51849;47.476;8.084;2022-08-05T08:49:53;30.70;37.80
65179;DHT22;51849;47.476;8.084;2022-08-05T08:52:24;31.00;37.30
65179;DHT22;51849;47.476;8.084;2022-08-05T08:54:54;31.00;37.20
65179;DHT22;51849;47.476;8.084;2022-08-05T08:57:21;30.80;37.20
65179;DHT22;51849;47.476;8.084;2022-08-05T08:59:50;30.70;37.50
65179;DHT22;51849;47.476;8.084;2022-08-05T09:02:18;30.80;37.50
65179;DHT22;51849;47.476;8.084;2022-08-05T09:04:45;30.70;37.70
65179;DHT22;51849;47.476;8.084;2022-08-05T09:07:12;30.80;37.10
65179;DHT22;51849;47.476;8.084;2022-08-05T09:09:38;30.80;37.10
65179;DHT22;51849;47.476;8.084;2022-08-05T09:12:04;30.90;36.40
65179;DHT22;51849;47.476;8.084;2022-08-05T09:14:33;31.10;35.90
65179;DHT22;51849;47.476;8.084;2022-08-05T09:17:03;31.00;36.00
65179;DHT22;51849;47.476;8.084;2022-08-05T09:19:33;31.10;35.80
65179;DHT22;51849;47.476;8.084;2022-08-05T09:21:59;31.20;35.60
65179;DHT22;51849;47.476;8.084;2022-08-05T09:24:24;31.20;35.60
65179;DHT22;51849;47.476;8.084;2022-08-05T09:26:51;31.30;35.30
65179;DHT22;51849;47.476;8.084;2022-08-05T09:29:18;31.40;35.00
65179;DHT22;51849;47.476;8.084;2022-08-05T09:31:59;31.30;34.80
65179;DHT22;51849;47.476;8.084;2022-08-05T09:34:49;31.30;34.30
65179;DHT22;51849;47.476;8.084;2022-08-05T09:37:20;31.40;34.10
65179;DHT22;51849;47.476;8.084;2022-08-05T09:39:49;31.40;34.30
65179;DHT22;51849;47.476;8.084;2022-08-05T09:42:16;31.40;34.00
65179;DHT22;51849;47.476;8.084;2022-08-05T09:44:47;31.60;33.70
65179;DHT22;51849;47.476;8.084;2022-08-05T09:47:20;31.50;33.70
65179;DHT22;51849;47.476;8.084;2022-08-05T09:52:18;31.90;33.30
65179;DHT22;51849;47.476;8.084;2022-08-05T09:57:39;32.50;31.90
65179;DHT22;51849;47.476;8.084;2022-08-05T10:02:46;32.70;32.50
65179;DHT22;51849;47.476;8.084;2022-08-05T10:05:18;32.70;33.40
65179;DHT22;51849;47.476;8.084;2022-08-05T10:13:27;32.80;33.40
65179;DHT22;51849;47.476;8.084;2022-08-05T10:15:56;32.70;33.70
65179;DHT22;51849;47.476;8.084;2022-08-05T10:18:23;32.60;33.80
65179;DHT22;51849;47.476;8.084;2022-08-05T10:20:54;32.60;33.90
65179;DHT22;51849;47.476;8.084;2022-08-05T10:23:26;32.70;33.90
65179;DHT22;51849;47.476;8.084;2022-08-05T10:25:54;32.70;34.10
65179;DHT22;51849;47.476;8.084;2022-08-05T10:28:21;32.90;33.70
65179;DHT22;51849;47.476;8.084;2022-08-05T10:30:47;33.00;33.70
65179;DHT22;51849;47.476;8.084;2022-08-05T10:33:13;33.00;33.90
65179;DHT22;51849;47.476;8.084;2022-08-05T10:35:38;32.80;34.10
65179;DHT22;51849;47.476;8.084;2022-08-05T10:38:05;32.90;34.40
65179;DHT22;51849;47.476;8.084;2022-08-05T10:43:16;33.10;33.90
65179;DHT22;51849;47.476;8.084;2022-08-05T10:46:04;33.10;33.90
65179;DHT22;51849;47.476;8.084;2022-08-05T10:48:36;33.10;33.50
65179;DHT22;51849;47.476;8.084;2022-08-05T10:53:37;33.40;33.00
65179;DHT22;51849;47.476;8.084;2022-08-05T10:58:49;33.30;32.60
65179;DHT22;51849;47.476;8.084;2022-08-05T11:01:32;33.50;32.50
65179;DHT22;51849;47.476;8.084;2022-08-05T11:04:15;33.50;32.60
65179;DHT22;51849;47.476;8.084;2022-08-05T11:17:52;33.90;31.30
65179;DHT22;51849;47.476;8.084;2022-08-05T11:28:37;33.10;32.30
65179;DHT22;51849;47.476;8.084;2022-08-05T11:33:35;33.30;32.30
65179;DHT22;51849;47.476;8.084;2022-08-05T11:36:03;33.40;31.80
65179;DHT22;51849;47.476;8.084;2022-08-05T11:41:14;33.20;32.00
65179;DHT22;51849;47.476;8.084;2022-08-05T11:43:42;33.00;32.10
65179;DHT22;51849;47.476;8.084;2022-08-05T11:48:56;32.80;32.60
65179;DHT22;51849;47.476;8.084;2022-08-05T11:51:23;33.00;33.30
65179;DHT22;51849;47.476;8.084;2022-08-05T11:53:49;33.30;33.00
65179;DHT22;51849;47.476;8.084;2022-08-05T11:56:15;33.70;32.20
65179;DHT22;51849;47.476;8.084;2022-08-05T11:58:42;34.10;30.90
65179;DHT22;51849;47.476;8.084;2022-08-05T12:01:13;34.10;30.90
65179;DHT22;51849;47.476;8.084;2022-08-05T12:03:42;34.10;30.60
65179;DHT22;51849;47.476;8.084;2022-08-05T12:06:23;33.90;31.00
65179;DHT22;51849;47.476;8.084;2022-08-05T12:08:54;34.00;31.30
65179;DHT22;51849;47.476;8.084;2022-08-05T12:13:53;34.10;31.00
65179;DHT22;51849;47.476;8.084;2022-08-05T12:16:25;34.20;30.40
65179;DHT22;51849;47.476;8.084;2022-08-05T12:18:58;34.50;29.70
65179;DHT22;51849;47.476;8.084;2022-08-05T12:21:30;34.70;29.20
65179;DHT22;51849;47.476;8.084;2022-08-05T12:26:40;34.90;29.30
65179;DHT22;51849;47.476;8.084;2022-08-05T12:31:44;35.00;29.00
65179;DHT22;51849;47.476;8.084;2022-08-05T12:34:21;35.00;29.30
65179;DHT22;51849;47.476;8.084;2022-08-05T12:36:53;34.80;29.60
65179;DHT22;51849;47.476;8.084;2022-08-05T12:39:39;34.60;29.50
65179;DHT22;51849;47.476;8.084;2022-08-05T12:42:09;34.50;29.60
65179;DHT22;51849;47.476;8.084;2022-08-05T12:44:43;34.60;29.50
65179;DHT22;51849;47.476;8.084;2022-08-05T12:47:10;34.40;29.80
65179;DHT22;51849;47.476;8.084;2022-08-05T12:49:44;34.20;29.90
65179;DHT22;51849;47.476;8.084;2022-08-05T12:52:17;33.90;30.40
65179;DHT22;51849;47.476;8.084;2022-08-05T12:54:44;33.80;30.40
65179;DHT22;51849;47.476;8.084;2022-08-05T12:57:13;33.50;30.60
65179;DHT22;51849;47.476;8.084;2022-08-05T13:02:23;33.70;30.70
65179;DHT22;51849;47.476;8.084;2022-08-05T13:04:51;33.70;30.60
65179;DHT22;51849;47.476;8.084;2022-08-05T13:07:19;33.70;30.50
65179;DHT22;51849;47.476;8.084;2022-08-05T13:09:56;33.60;30.50
65179;DHT22;51849;47.476;8.084;2022-08-05T13:12:25;33.50;30.40
65179;DHT22;51849;47.476;8.084;2022-08-05T13:14:58;33.50;30.60
65179;DHT22;51849;47.476;8.084;2022-08-05T13:17:29;33.60;30.70
65179;DHT22;51849;47.476;8.084;2022-08-05T13:20:00;33.70;30.20
65179;DHT22;51849;47.476;8.084;2022-08-05T13:22:34;33.80;29.90
65179;DHT22;51849;47.476;8.084;2022-08-05T13:25:02;33.90;29.60
65179;DHT22;51849;47.476;8.084;2022-08-05T13:27:31;33.90;29.80
65179;DHT22;51849;47.476;8.084;2022-08-05T13:29:57;34.20;29.10
65179;DHT22;51849;47.476;8.084;2022-08-05T13:32:23;34.40;29.00
65179;DHT22;51849;47.476;8.084;2022-08-05T13:34:50;34.50;28.50
65179;DHT22;51849;47.476;8.084;2022-08-05T13:37:17;34.60;28.40
65179;DHT22;51849;47.476;8.084;2022-08-05T13:39:43;34.70;28.30
65179;DHT22;51849;47.476;8.084;2022-08-05T13:42:09;34.80;28.10
65179;DHT22;51849;47.476;8.084;2022-08-05T13:44:35;34.80;28.30
65179;DHT22;51849;47.476;8.084;2022-08-05T13:47:01;34.90;28.20
65179;DHT22;51849;47.476;8.084;2022-08-05T13:49:27;34.70;28.30
65179;DHT22;51849;47.476;8.084;2022-08-05T13:51:53;34.60;28.70
65179;DHT22;51849;47.476;8.084;2022-08-05T13:54:18;34.60;28.80
65179;DHT22;51849;47.476;8.084;2022-08-05T13:56:45;34.60;28.80
65179;DHT22;51849;47.476;8.084;2022-08-05T13:59:11;34.60;28.80
65179;DHT22;51849;47.476;8.084;2022-08-05T14:01:36;34.50;28.30
65179;DHT22;51849;47.476;8.084;2022-08-05T14:04:02;34.50;28.40
65179;DHT22;51849;47.476;8.084;2022-08-05T14:06:46;34.40;28.80
65179;DHT22;51849;47.476;8.084;2022-08-05T14:09:12;34.50;28.70
65179;DHT22;51849;47.476;8.084;2022-08-05T14:11:38;34.60;28.80
65179;DHT22;51849;47.476;8.084;2022-08-05T14:14:08;34.70;28.70
65179;DHT22;51849;47.476;8.084;2022-08-05T14:16:34;34.80;28.50
65179;DHT22;51849;47.476;8.084;2022-08-05T14:19:00;34.70;28.70
65179;DHT22;51849;47.476;8.084;2022-08-05T14:21:26;34.80;28.50
65179;DHT22;51849;47.476;8.084;2022-08-05T14:23:51;34.80;28.50
65179;DHT22;51849;47.476;8.084;2022-08-05T14:26:17;34.90;28.60
65179;DHT22;51849;47.476;8.084;2022-08-05T14:28:45;35.10;28.20
65179;DHT22;51849;47.476;8.084;2022-08-05T14:31:11;35.10;27.80
65179;DHT22;51849;47.476;8.084;2022-08-05T14:33:37;35.20;27.80
65179;DHT22;51849;47.476;8.084;2022-08-05T14:36:02;35.20;28.10
65179;DHT22;51849;47.476;8.084;2022-08-05T14:38:31;35.10;28.00
65179;DHT22;51849;47.476;8.084;2022-08-05T14:40:56;35.00;27.80
65179;DHT22;51849;47.476;8.084;2022-08-05T14:43:22;34.90;28.10
65179;DHT22;51849;47.476;8.084;2022-08-05T14:45:48;35.00;28.40
65179;DHT22;51849;47.476;8.084;2022-08-05T14:48:13;35.10;28.40
65179;DHT22;51849;47.476;8.084;2022-08-05T14:50:42;35.00;28.70
65179;DHT22;51849;47.476;8.084;2022-08-05T14:53:07;34.90;28.80
65179;DHT22;51849;47.476;8.084;2022-08-05T14:55:33;35.00;28.50
65179;DHT22;51849;47.476;8.084;2022-08-05T14:57:59;35.10;28.40
65179;DHT22;51849;47.476;8.084;2022-08-05T15:00:24;35.10;28.60
65179;DHT22;51849;47.476;8.084;2022-08-05T15:02:50;35.20;28.40
65179;DHT22;51849;47.476;8.084;2022-08-05T15:05:16;35.00;28.50
65179;DHT22;51849;47.476;8.084;2022-08-05T15:07:41;34.90;28.50
65179;DHT22;51849;47.476;8.084;2022-08-05T15:10:07;34.80;28.80
65179;DHT22;51849;47.476;8.084;2022-08-05T15:12:33;34.90;28.90
65179;DHT22;51849;47.476;8.084;2022-08-05T15:14:59;34.90;28.70
65179;DHT22;51849;47.476;8.084;2022-08-05T15:17:24;34.90;28.60
65179;DHT22;51849;47.476;8.084;2022-08-05T15:19:52;34.90;28.90
65179;DHT22;51849;47.476;8.084;2022-08-05T15:22:18;35.00;28.50
65179;DHT22;51849;47.476;8.084;2022-08-05T15:24:43;34.90;28.40
65179;DHT22;51849;47.476;8.084;2022-08-05T15:27:09;34.90;28.90
65179;DHT22;51849;47.476;8.084;2022-08-05T15:29:35;34.90;28.90
65179;DHT22;51849;47.476;8.084;2022-08-05T15:32:01;35.00;28.70
65179;DHT22;51849;47.476;8.084;2022-08-05T15:34:27;34.90;28.70
65179;DHT22;51849;47.476;8.084;2022-08-05T15:36:52;34.90;28.70
65179;DHT22;51849;47.476;8.084;2022-08-05T15:39:18;34.90;29.10
65179;DHT22;51849;47.476;8.084;2022-08-05T15:41:44;34.90;28.80
65179;DHT22;51849;47.476;8.084;2022-08-05T15:44:09;34.90;28.80
65179;DHT22;51849;47.476;8.084;2022-08-05T15:46:38;34.70;29.10
65179;DHT22;51849;47.476;8.084;2022-08-05T15:49:03;34.70;28.80
65179;DHT22;51849;47.476;8.084;2022-08-05T15:51:29;34.60;29.10
65179;DHT22;51849;47.476;8.084;2022-08-05T15:53:55;34.40;29.50
65179;DHT22;51849;47.476;8.084;2022-08-05T15:56:21;34.30;29.40
65179;DHT22;51849;47.476;8.084;2022-08-05T15:58:47;34.30;29.30
65179;DHT22;51849;47.476;8.084;2022-08-05T16:01:13;34.30;29.60
65179;DHT22;51849;47.476;8.084;2022-08-05T16:03:43;34.40;29.30
65179;DHT22;51849;47.476;8.084;2022-08-05T16:06:09;34.50;29.30
65179;DHT22;51849;47.476;8.084;2022-08-05T16:08:35;34.40;29.20
65179;DHT22;51849;47.476;8.084;2022-08-05T16:11:05;34.10;29.90
65179;DHT22;51849;47.476;8.084;2022-08-05T16:13:32;34.00;30.20
65179;DHT22;51849;47.476;8.084;2022-08-05T16:15:58;34.00;30.00
65179;DHT22;51849;47.476;8.084;2022-08-05T16:18:23;34.00;29.90
65179;DHT22;51849;47.476;8.084;2022-08-05T16:20:49;34.10;29.80
65179;DHT22;51849;47.476;8.084;2022-08-05T16:23:14;34.20;29.50
65179;DHT22;51849;47.476;8.084;2022-08-05T16:25:40;34.20;29.70
65179;DHT22;51849;47.476;8.084;2022-08-05T16:28:06;34.20;29.80
65179;DHT22;51849;47.476;8.084;2022-08-05T16:30:32;34.10;29.50
65179;DHT22;51849;47.476;8.084;2022-08-05T16:32:59;34.10;29.60
65179;DHT22;51849;47.476;8.084;2022-08-05T16:35:25;34.00;29.30
65179;DHT22;51849;47.476;8.084;2022-08-05T16:37:52;33.90;29.80
65179;DHT22;51849;47.476;8.084;2022-08-05T16:40:18;34.00;29.60
65179;DHT22;51849;47.476;8.084;2022-08-05T16:42:44;33.90;29.90
65179;DHT22;51849;47.476;8.084;2022-08-05T16:45:09;33.90;29.80
65179;DHT22;51849;47.476;8.084;2022-08-05T16:47:35;33.80;29.90
65179;DHT22;51849;47.476;8.084;2022-08-05T16:50:02;33.70;30.40
65179;DHT22;51849;47.476;8.084;2022-08-05T16:52:29;33.50;30.70
65179;DHT22;51849;47.476;8.084;2022-08-05T16:54:55;33.30;30.90